LFRB Airport Information

Runway Information
Runway 07L Length 2297 ft width 59 ft
Elevation 311 ft Threshold 0 ft Heading 71
Runway 25R Length 2297 ft Width 59 ft
Elevation 317 ft Threshold 0 ft Heading 251
Runway 07R Length 10171 ft width 148 ft
Elevation 289 ft Threshold 0 ft Heading 71
Runway 25L Length 10171 ft Width 148 ft
Elevation 312 ft Threshold 984 ft Heading 251
Airport Frequencies
Type APP Name LANDI APP Frequency 122.4 MHZ
Type APP Name IROISE APP Frequency 135.825 MHZ
Type ATIS Name ATIS Frequency 129.35 MHZ
Type TWR Name TWR Frequency 120.1 MHZ
Airport Navaids
Type NDB Name Guipavas Frequency 387 KHZ
Type NDB Name Guipavas Frequency 338 KHZ
Airport Weather Information & NOTAM
ADDS - METARS form results

(2019 UTC 22 July 2018)
 
METAR text: LFRB 222000Z AUTO 34005KT CAVOK 18/14 Q1019 NOSIG
Conditions at: LFRB (BREST/GUIPAVAS , FR) observed 2000 UTC 22 July 2018
Temperature: 18.0°C (64°F)
Dewpoint: 14.0°C (57°F) [RH = 77%]
Pressure (altimeter): 30.09 inches Hg (1019.0 mb)
Winds: from the NNW (340 degrees) at 6 MPH (5 knots; 2.6 m/s)
Visibility: 6 or more miles (10+ km)
Ceiling: ceiling and visibility are OK
Clouds: unknown
Weather: no significant weather observed at this time

METAR text: LFRB 221930Z AUTO 33006KT 300V360 9999 FEW009 20/15 Q1019 NOSIG
Conditions at: LFRB (BREST/GUIPAVAS , FR) observed 1930 UTC 22 July 2018
Temperature: 20.0°C (68°F)
Dewpoint: 15.0°C (59°F) [RH = 73%]
Pressure (altimeter): 30.09 inches Hg (1019.0 mb)
Winds: from the NNW (330 degrees) at 7 MPH (6 knots; 3.1 m/s)
Visibility: 6 or more miles (10+ km)
Ceiling: at least 12,000 feet AGL
Clouds: few clouds at 900 feet AGL
Weather: no significant weather observed at this time